Time;durP1;ratioP1;P1;durP2;ratioP2;P2;SDS_P1;SDS_P2;PMS_P1;PMS_P2;Temp;Humidity;BMP_temperature;BMP_pressure;BME280_temperature;BME280_humidity;BME280_pressure;Samples;Min_cycle;Max_cycle;Signal;HPM_P1;HPM_P2
2022/01/19 01:01:38;;;;;;;;;;;;;;;;;;6177429;23;20034;-96
2022/01/19 01:06:58;;;;;;;;;;;;;;;;;;6201489;23;19911;-96
2022/01/19 01:12:13;;;;;;;;;;;;;;;;;;6228075;23;19920;-96
2022/01/19 01:19:49;;;;;;;;;;;;;;;;;;6234121;23;19927;-96
2022/01/19 02:23:12;;;;;;;;;;;;;;;;;;6178576;23;19912;-95
2022/01/19 02:36:51;;;;;;;;;;;;;;;;;;6170532;23;19920;-96
2022/01/19 02:52:57;;;;;;;;;;;;;;;;;;6197722;22;19912;-96
2022/01/19 02:55:23;;;;;;;;;;;;;;;;;;6199550;23;19981;-96
2022/01/19 02:57:50;;;;;;;;;;;;;;;;;;6207872;23;19914;-96
2022/01/19 03:08:47;;;;;;;;;;;;;;;;;;6172494;23;20252;-96
2022/01/19 03:16:34;;;;;;;;;;;;;;;;;;6210493;23;19931;-96
2022/01/19 03:19:01;;;;;;;;;;;;;;;;;;6208139;23;19995;-96
2022/01/19 03:21:28;;;;;;;;;;;;;;;;;;6209118;23;19964;-96
2022/01/19 03:23:55;;;;;;;;;;;;;;;;;;6198762;23;19991;-96
2022/01/19 03:26:21;;;;;;;;;;;;;;;;;;6204413;23;19939;-96
2022/01/19 03:28:48;;;;;;;;;;;;;;;;;;6206140;23;19959;-96
2022/01/19 03:31:14;;;;;;;;;;;;;;;;;;6213364;23;19932;-96
2022/01/19 03:33:40;;;;;;;;;;;;;;;;;;6200086;23;19930;-96
2022/01/19 03:36:07;;;;;;;;;;;;;;;;;;6198668;23;19924;-96
2022/01/19 03:38:33;;;;;;;;;;;;;;;;;;6203856;23;19920;-96
2022/01/19 03:41:00;;;;;;;;;;;;;;;;;;6203050;23;19947;-96
2022/01/19 03:43:26;;;;;;;;;;;;;;;;;;6205122;23;19924;-96
2022/01/19 03:46:12;;;;;;;;;;;;;;;;;;6210496;23;19924;-96
2022/01/19 03:48:50;;;;;;;;;;;;;;;;;;6205580;23;19912;-96
2022/01/19 03:51:16;;;;;;;;;;;;;;;;;;6208675;23;19950;-96
2022/01/19 03:53:45;;;;;;;;;;;;;;;;;;6205984;23;19976;-96
2022/01/19 03:56:19;;;;;;;;;;;;;;;;;;6201118;23;19987;-96
2022/01/19 03:58:45;;;;;;;;;;;;;;;;;;6201408;23;19968;-96
2022/01/19 04:01:13;;;;;;;;;;;;;;;;;;6199315;23;19964;-96
2022/01/19 04:04:04;;;;;;;;;;;;;;;;;;6200376;23;19964;-96
2022/01/19 04:06:51;;;;;;;;;;;;;;;;;;6198321;23;20335;-96
2022/01/19 04:09:16;;;;;;;;;;;;;;;;;;6201476;23;19920;-96
2022/01/19 04:11:43;;;;;;;;;;;;;;;;;;6198577;23;20023;-96
2022/01/19 04:16:55;;;;;;;;;;;;;;;;;;6194820;23;20263;-96
2022/01/19 04:19:28;;;;;;;;;;;;;;;;;;6198673;23;19963;-96
2022/01/19 04:21:55;;;;;;;;;;;;;;;;;;6200640;23;19921;-96
2022/01/19 04:24:21;;;;;;;;;;;;;;;;;;6200470;23;19955;-96
2022/01/19 04:26:57;;;;;;;;;;;;;;;;;;6200453;23;19960;-96
2022/01/19 04:29:24;;;;;;;;;;;;;;;;;;6202611;23;19936;-96
2022/01/19 04:31:52;;;;;;;;;;;;;;;;;;6201069;23;19947;-96
2022/01/19 04:34:19;;;;;;;;;;;;;;;;;;6201109;23;19995;-96
2022/01/19 04:37:22;;;;;;;;;;;;;;;;;;6204633;23;19948;-96
2022/01/19 04:45:49;;;;;;;;;;;;;;;;;;6198337;23;19916;-95
2022/01/19 04:48:19;;;;;;;;;;;;;;;;;;6195301;23;19924;-95
2022/01/19 05:02:18;;;;;;;;;;;;;;;;;;6086008;23;19961;-96
2022/01/19 05:04:52;;;;;;;;;;;;;;;;;;6184979;23;19944;-96
2022/01/19 05:07:23;;;;;;;;;;;;;;;;;;6200806;23;19920;-96
2022/01/19 05:10:04;;;;;;;;;;;;;;;;;;6199994;23;19967;-96
2022/01/19 05:15:14;;;;;;;;;;;;;;;;;;6198888;23;19932;-96
2022/01/19 05:17:42;;;;;;;;;;;;;;;;;;6198462;23;19951;-96
2022/01/19 05:20:08;;;;;;;;;;;;;;;;;;6198820;23;19926;-96
2022/01/19 05:22:35;;;;;;;;;;;;;;;;;;6198108;23;19920;-96
2022/01/19 05:25:01;;;;;;;;;;;;;;;;;;6198690;23;19920;-96
2022/01/19 05:27:27;;;;;;;;;;;;;;;;;;6197568;23;19974;-96
2022/01/19 05:29:53;;;;;;;;;;;;;;;;;;6198134;23;19965;-96
2022/01/19 05:32:20;;;;;;;;;;;;;;;;;;6199288;23;19926;-96
2022/01/19 05:34:46;;;;;;;;;;;;;;;;;;6198713;23;20219;-96
2022/01/19 05:37:12;;;;;;;;;;;;;;;;;;6198659;23;19947;-96
2022/01/19 05:39:39;;;;;;;;;;;;;;;;;;6199380;23;19964;-96
2022/01/19 05:42:05;;;;;;;;;;;;;;;;;;6195483;23;19928;-95
2022/01/19 05:44:31;;;;;;;;;;;;;;;;;;6193165;23;19924;-94
2022/01/19 05:46:58;;;;;;;;;;;;;;;;;;6196519;23;19920;-94
2022/01/19 05:49:24;;;;;;;;;;;;;;;;;;6197239;23;19920;-94
2022/01/19 05:51:51;;;;;;;;;;;;;;;;;;6195118;23;19925;-93
2022/01/19 05:54:20;;;;;;;;;;;;;;;;;;6194877;23;19920;-95
2022/01/19 05:56:46;;;;;;;;;;;;;;;;;;6196855;23;19920;-96
2022/01/19 05:59:13;;;;;;;;;;;;;;;;;;6196803;23;19921;-96
2022/01/19 06:01:40;;;;;;;;;;;;;;;;;;6198002;23;19920;-95
2022/01/19 06:04:07;;;;;;;;;;;;;;;;;;6195339;23;19930;-95
2022/01/19 06:06:33;;;;;;;;;;;;;;;;;;6189575;23;20254;-94
2022/01/19 06:09:03;;;;;;;;;;;;;;;;;;6188498;23;19920;-94
2022/01/19 06:11:29;;;;;;;;;;;;;;;;;;6194246;23;19925;-94
2022/01/19 06:13:55;;;;;;;;;;;;;;;;;;6194793;23;19951;-95
2022/01/19 06:16:21;;;;;;;;;;;;;;;;;;6193596;23;20503;-96
2022/01/19 06:18:48;;;;;;;;;;;;;;;;;;6163515;23;19927;-94
2022/01/19 06:21:16;;;;;;;;;;;;;;;;;;6190099;23;19943;-94
2022/01/19 06:23:43;;;;;;;;;;;;;;;;;;6163761;23;20341;-95
2022/01/19 06:26:09;;;;;;;;;;;;;;;;;;6193044;23;19920;-94
2022/01/19 06:28:35;;;;;;;;;;;;;;;;;;6192448;23;19920;-94
2022/01/19 06:31:02;;;;;;;;;;;;;;;;;;6197999;23;19944;-96
2022/01/19 06:33:28;;;;;;;;;;;;;;;;;;6197986;23;19927;-96
2022/01/19 06:38:38;;;;;;;;;;;;;;;;;;6197716;23;19964;-96
2022/01/19 06:41:04;;;;;;;;;;;;;;;;;;6197853;23;19926;-95
2022/01/19 06:43:30;;;;;;;;;;;;;;;;;;6197361;23;19931;-96
2022/01/19 06:45:59;;;;;;;;;;;;;;;;;;6195461;23;20376;-96
2022/01/19 06:48:26;;;;;;;;;;;;;;;;;;6196097;23;19921;-96
2022/01/19 06:50:52;;;;;;;;;;;;;;;;;;6195318;23;19921;-96
2022/01/19 06:53:20;;;;;;;;;;;;;;;;;;6199937;23;19927;-96
2022/01/19 06:55:47;;;;;;;;;;;;;;;;;;6204283;23;19920;-96
2022/01/19 06:58:13;;;;;;;;;;;;;;;;;;6201682;23;20390;-96
2022/01/19 07:00:39;;;;;;;;;;;;;;;;;;6198643;23;19920;-95
2022/01/19 07:03:06;;;;;;;;;;;;;;;;;;6195994;23;20577;-96
2022/01/19 07:05:32;;;;;;;;;;;;;;;;;;6196020;23;19960;-96
2022/01/19 07:07:58;;;;;;;;;;;;;;;;;;6196365;23;20289;-96
2022/01/19 07:10:25;;;;;;;;;;;;;;;;;;6196030;23;19991;-96
2022/01/19 07:12:51;;;;;;;;;;;;;;;;;;6196018;23;19926;-96
2022/01/19 07:15:17;;;;;;;;;;;;;;;;;;6196353;23;19932;-96
2022/01/19 07:17:44;;;;;;;;;;;;;;;;;;6168482;23;20524;-95
2022/01/19 07:20:10;;;;;;;;;;;;;;;;;;6194708;23;19924;-96
2022/01/19 07:22:36;;;;;;;;;;;;;;;;;;6196606;23;19924;-96
2022/01/19 07:25:03;;;;;;;;;;;;;;;;;;6197949;23;20310;-96
2022/01/19 07:27:29;;;;;;;;;;;;;;;;;;6196965;23;19925;-96
2022/01/19 07:29:55;;;;;;;;;;;;;;;;;;6196631;23;19936;-96
2022/01/19 07:32:23;;;;;;;;;;;;;;;;;;6196518;23;19924;-96
2022/01/19 07:34:49;;;;;;;;;;;;;;;;;;6196689;23;19921;-96
2022/01/19 07:37:16;;;;;;;;;;;;;;;;;;6196561;23;19924;-96
2022/01/19 07:39:42;;;;;;;;;;;;;;;;;;6196390;23;19924;-95
2022/01/19 07:42:08;;;;;;;;;;;;;;;;;;6194831;23;19924;-96
2022/01/19 07:44:34;;;;;;;;;;;;;;;;;;6194242;23;19952;-95
2022/01/19 07:47:01;;;;;;;;;;;;;;;;;;6194163;23;19943;-95
2022/01/19 07:49:27;;;;;;;;;;;;;;;;;;6192477;23;19921;-95
2022/01/19 07:51:53;;;;;;;;;;;;;;;;;;6193431;23;19921;-93
2022/01/19 07:54:19;;;;;;;;;;;;;;;;;;6192758;23;19924;-95
2022/01/19 07:56:47;;;;;;;;;;;;;;;;;;6193756;23;19920;-94
2022/01/19 07:59:13;;;;;;;;;;;;;;;;;;6195063;23;19924;-96
2022/01/19 08:01:40;;;;;;;;;;;;;;;;;;6195775;23;19991;-94
2022/01/19 08:04:06;;;;;;;;;;;;;;;;;;6195630;23;19928;-95
2022/01/19 08:06:32;;;;;;;;;;;;;;;;;;6195486;23;19928;-95
2022/01/19 08:08:58;;;;;;;;;;;;;;;;;;6194609;23;19928;-96
2022/01/19 08:11:25;;;;;;;;;;;;;;;;;;6194932;23;19920;-96
2022/01/19 08:13:52;;;;;;;;;;;;;;;;;;6167744;23;19921;-96
2022/01/19 08:16:18;;;;;;;;;;;;;;;;;;6167534;23;19928;-96
2022/01/19 08:18:45;;;;;;;;;;;;;;;;;;6173546;23;19927;-96
2022/01/19 08:21:11;;;;;;;;;;;;;;;;;;6168029;23;19921;-96
2022/01/19 08:23:37;;;;;;;;;;;;;;;;;;6167107;23;19928;-96
2022/01/19 08:26:04;;;;;;;;;;;;;;;;;;6166928;23;19921;-96
2022/01/19 08:28:30;;;;;;;;;;;;;;;;;;6163284;23;19921;-96
2022/01/19 08:30:56;;;;;;;;;;;;;;;;;;6167469;23;19925;-96
2022/01/19 08:33:23;;;;;;;;;;;;;;;;;;6172022;23;19964;-96
2022/01/19 08:35:52;;;;;;;;;;;;;;;;;;6168045;23;19927;-96
2022/01/19 08:38:18;;;;;;;;;;;;;;;;;;6171126;23;19934;-95
2022/01/19 08:40:45;;;;;;;;;;;;;;;;;;6174039;23;19931;-96
2022/01/19 08:43:11;;;;;;;;;;;;;;;;;;6168686;23;19925;-96
2022/01/19 08:45:40;;;;;;;;;;;;;;;;;;6175628;23;20310;-96
2022/01/19 08:48:12;;;;;;;;;;;;;;;;;;6178535;23;19924;-96
2022/01/19 08:50:40;;;;;;;;;;;;;;;;;;6175587;23;19929;-96
2022/01/19 08:55:46;;;;;;;;;;;;;;;;;;6175110;23;19948;-96
2022/01/19 08:58:22;;;;;;;;;;;;;;;;;;6155439;23;19905;-96
2022/01/19 09:00:53;;;;;;;;;;;;;;;;;;6176227;23;19908;-96
2022/01/19 09:14:01;;;;;;;;;;;;;;;;;;6184144;23;19916;-96
2022/01/19 09:16:28;;;;;;;;;;;;;;;;;;6230425;22;20373;-96
2022/01/19 09:18:55;;;;;;;;;;;;;;;;;;6256027;23;20522;-96
2022/01/19 09:29:42;;;;;;;;;;;;;;;;;;6241496;23;19935;-97
2022/01/19 09:42:28;;;;;;;;;;;;;;;;;;6203745;23;19924;-96
2022/01/19 09:58:04;;;;;;;;;;;;;;;;;;6179606;23;19926;-96
2022/01/19 10:00:54;;;;;;;;;;;;;;;;;;6174657;23;19921;-96
2022/01/19 10:21:53;;;;;;;;;;;;;;;;;;6223523;22;19948;-96
2022/01/19 10:24:19;;;;;;;;;;;;;;;;;;6152396;23;19968;-96
2022/01/19 10:29:26;;;;;;;;;;;;;;;;;;6150782;23;20023;-96
2022/01/19 10:37:22;;;;;;;;;;;;;;;;;;6205254;23;19921;-96
2022/01/19 10:42:31;;;;;;;;;;;;;;;;;;6145516;23;19927;-96
2022/01/19 10:44:58;;;;;;;;;;;;;;;;;;6196961;22;19904;-96
2022/01/19 10:52:45;;;;;;;;;;;;;;;;;;6167341;23;19904;-96
2022/01/19 10:55:11;;;;;;;;;;;;;;;;;;6203355;23;19908;-96
2022/01/19 10:57:38;;;;;;;;;;;;;;;;;;6200328;23;19921;-96
2022/01/19 11:00:07;;;;;;;;;;;;;;;;;;6207583;23;19905;-96
2022/01/19 11:02:34;;;;;;;;;;;;;;;;;;6174946;23;19905;-95
2022/01/19 11:07:49;;;;;;;;;;;;;;;;;;6203754;23;19904;-94
2022/01/19 11:12:56;;;;;;;;;;;;;;;;;;6180555;23;19960;-96
2022/01/19 11:15:22;;;;;;;;;;;;;;;;;;6211540;23;19912;-96
2022/01/19 11:17:49;;;;;;;;;;;;;;;;;;6188790;23;19904;-96
2022/01/19 11:20:15;;;;;;;;;;;;;;;;;;6196187;23;19952;-96
2022/01/19 11:22:42;;;;;;;;;;;;;;;;;;6168476;23;19920;-95
2022/01/19 11:25:08;;;;;;;;;;;;;;;;;;6165880;23;19931;-96
2022/01/19 11:27:37;;;;;;;;;;;;;;;;;;6167504;23;19931;-96
2022/01/19 11:30:18;;;;;;;;;;;;;;;;;;6177297;23;19911;-96
2022/01/19 11:32:47;;;;;;;;;;;;;;;;;;6191352;23;19912;-96
2022/01/19 11:35:14;;;;;;;;;;;;;;;;;;6274819;22;19920;-96
2022/01/19 11:37:40;;;;;;;;;;;;;;;;;;6276014;22;19904;-96
2022/01/19 11:40:06;;;;;;;;;;;;;;;;;;6276594;22;19904;-95
2022/01/19 11:42:33;;;;;;;;;;;;;;;;;;6275459;22;19927;-94
2022/01/19 11:45:07;;;;;;;;;;;;;;;;;;6276006;22;19947;-96
2022/01/19 11:52:49;;;;;;;;;;;;;;;;;;6206013;23;19924;-96
2022/01/19 11:58:02;;;;;;;;;;;;;;;;;;6208358;23;19923;-96
2022/01/19 12:08:29;;;;;;;;;;;;;;;;;;6200925;22;20003;-96
2022/01/19 12:10:57;;;;;;;;;;;;;;;;;;6211658;23;19904;-96
2022/01/19 12:13:29;;;;;;;;;;;;;;;;;;6210731;23;19928;-96
2022/01/19 12:16:00;;;;;;;;;;;;;;;;;;6210848;23;19960;-96
2022/01/19 12:18:26;;;;;;;;;;;;;;;;;;6183498;23;19920;-96
2022/01/19 12:20:53;;;;;;;;;;;;;;;;;;6205826;23;19956;-96
2022/01/19 12:23:30;;;;;;;;;;;;;;;;;;6209493;23;19920;-96
2022/01/19 12:25:58;;;;;;;;;;;;;;;;;;6207380;23;19943;-96
2022/01/19 12:28:24;;;;;;;;;;;;;;;;;;6200259;23;19924;-96
2022/01/19 12:30:51;;;;;;;;;;;;;;;;;;6202737;23;19920;-96
2022/01/19 12:33:18;;;;;;;;;;;;;;;;;;6197653;23;19924;-96
2022/01/19 12:35:45;;;;;;;;;;;;;;;;;;6208715;23;19963;-96
2022/01/19 12:38:14;;;;;;;;;;;;;;;;;;6200918;23;19927;-96
2022/01/19 12:40:41;;;;;;;;;;;;;;;;;;6204719;23;19924;-96
2022/01/19 12:43:11;;;;;;;;;;;;;;;;;;6200156;23;19943;-96
2022/01/19 12:45:38;;;;;;;;;;;;;;;;;;6206378;23;19951;-96
2022/01/19 12:48:04;;;;;;;;;;;;;;;;;;6202381;23;19931;-96
2022/01/19 12:50:30;;;;;;;;;;;;;;;;;;6203347;23;19928;-96
2022/01/19 12:52:57;;;;;;;;;;;;;;;;;;6204831;23;19917;-97
2022/01/19 12:55:24;;;;;;;;;;;;;;;;;;6202562;23;19924;-96
2022/01/19 12:57:51;;;;;;;;;;;;;;;;;;6203466;23;19924;-96
2022/01/19 13:00:33;;;;;;;;;;;;;;;;;;6200538;23;19964;-96
2022/01/19 13:05:41;;;;;;;;;;;;;;;;;;6191682;23;19915;-96
2022/01/19 13:08:08;;;;;;;;;;;;;;;;;;6205905;23;19935;-96
2022/01/19 13:10:41;;;;;;;;;;;;;;;;;;6172811;23;19920;-96
2022/01/19 13:13:09;;;;;;;;;;;;;;;;;;6166939;23;19927;-96
2022/01/19 13:15:35;;;;;;;;;;;;;;;;;;6167695;23;19944;-96
2022/01/19 13:18:02;;;;;;;;;;;;;;;;;;6165573;23;19949;-96
2022/01/19 13:20:28;;;;;;;;;;;;;;;;;;6163167;23;19928;-96
2022/01/19 13:22:54;;;;;;;;;;;;;;;;;;6165527;23;19925;-96
2022/01/19 13:25:21;;;;;;;;;;;;;;;;;;6166109;23;19920;-96
2022/01/19 13:27:48;;;;;;;;;;;;;;;;;;6171112;23;19920;-96
2022/01/19 13:30:15;;;;;;;;;;;;;;;;;;6173177;23;19917;-96
2022/01/19 13:32:43;;;;;;;;;;;;;;;;;;6178218;23;19921;-96
2022/01/19 13:35:15;;;;;;;;;;;;;;;;;;6177786;23;19932;-96
2022/01/19 13:37:42;;;;;;;;;;;;;;;;;;6179424;23;19931;-96
2022/01/19 13:40:09;;;;;;;;;;;;;;;;;;6174470;23;19923;-96
2022/01/19 13:42:37;;;;;;;;;;;;;;;;;;6174697;23;19921;-97
2022/01/19 13:45:19;;;;;;;;;;;;;;;;;;6170123;23;19936;-96
2022/01/19 13:47:54;;;;;;;;;;;;;;;;;;6181239;23;19948;-96
2022/01/19 13:50:26;;;;;;;;;;;;;;;;;;6170975;23;19926;-96
2022/01/19 13:52:53;;;;;;;;;;;;;;;;;;6168470;23;19952;-96
2022/01/19 13:55:19;;;;;;;;;;;;;;;;;;6166963;23;19964;-96
2022/01/19 13:57:51;;;;;;;;;;;;;;;;;;6170959;23;19939;-96
2022/01/19 14:00:22;;;;;;;;;;;;;;;;;;6171698;23;19947;-96
2022/01/19 14:02:49;;;;;;;;;;;;;;;;;;6169872;23;19931;-96
2022/01/19 14:07:58;;;;;;;;;;;;;;;;;;6172136;23;19908;-96
2022/01/19 14:10:28;;;;;;;;;;;;;;;;;;6176353;23;19916;-96
2022/01/19 14:12:59;;;;;;;;;;;;;;;;;;6177277;23;19969;-96
2022/01/19 14:15:26;;;;;;;;;;;;;;;;;;6174823;23;19925;-96
2022/01/19 14:18:00;;;;;;;;;;;;;;;;;;6179130;23;19978;-96
2022/01/19 14:20:28;;;;;;;;;;;;;;;;;;6177403;23;19948;-96
2022/01/19 14:25:36;;;;;;;;;;;;;;;;;;6175649;23;19935;-96
2022/01/19 14:28:07;;;;;;;;;;;;;;;;;;6174046;23;19953;-96
2022/01/19 14:30:43;;;;;;;;;;;;;;;;;;6176951;23;19964;-96
2022/01/19 14:33:13;;;;;;;;;;;;;;;;;;6177380;23;19920;-96
2022/01/19 14:35:41;;;;;;;;;;;;;;;;;;6181552;23;19920;-96
2022/01/19 14:38:07;;;;;;;;;;;;;;;;;;6177759;23;19924;-96
2022/01/19 14:40:33;;;;;;;;;;;;;;;;;;6166821;23;19968;-96
2022/01/19 14:45:47;;;;;;;;;;;;;;;;;;6156206;23;19932;-96
2022/01/19 14:48:13;;;;;;;;;;;;;;;;;;6160004;23;19952;-96
2022/01/19 14:50:40;;;;;;;;;;;;;;;;;;6160277;23;19944;-96
2022/01/19 14:53:06;;;;;;;;;;;;;;;;;;6163255;23;19920;-96
2022/01/19 15:03:33;;;;;;;;;;;;;;;;;;6185199;23;19920;-96
2022/01/19 15:05:59;;;;;;;;;;;;;;;;;;6194936;23;20778;-96
2022/01/19 15:08:25;;;;;;;;;;;;;;;;;;6196100;23;19924;-96
2022/01/19 15:21:18;;;;;;;;;;;;;;;;;;6221829;23;19954;-96
2022/01/19 15:23:44;;;;;;;;;;;;;;;;;;6218568;23;19931;-96
2022/01/19 15:26:11;;;;;;;;;;;;;;;;;;6225323;23;19919;-96
2022/01/19 15:28:37;;;;;;;;;;;;;;;;;;6226478;23;19971;-95
2022/01/19 15:31:05;;;;;;;;;;;;;;;;;;6225610;23;19943;-96
2022/01/19 15:33:31;;;;;;;;;;;;;;;;;;6224553;23;19972;-95
2022/01/19 15:38:33;;;;;;;;;;;;;;;;;;6221710;22;20585;-96
2022/01/19 15:40:59;;;;;;;;;;;;;;;;;;6230322;23;19920;-96
2022/01/19 15:43:26;;;;;;;;;;;;;;;;;;6227692;23;19943;-96
2022/01/19 15:53:50;;;;;;;;;;;;;;;;;;6213542;23;20271;-96
2022/01/19 15:58:52;;;;;;;;;;;;;;;;;;6231354;23;19919;-95
2022/01/19 16:01:18;;;;;;;;;;;;;;;;;;6225953;23;19968;-96
2022/01/19 16:06:19;;;;;;;;;;;;;;;;;;6193564;22;19946;-96
2022/01/19 16:08:45;;;;;;;;;;;;;;;;;;6230459;23;19924;-96
2022/01/19 16:13:52;;;;;;;;;;;;;;;;;;6196883;22;19935;-96
2022/01/19 16:16:19;;;;;;;;;;;;;;;;;;6169614;23;19948;-95
2022/01/19 16:18:45;;;;;;;;;;;;;;;;;;6205340;23;19963;-96
2022/01/19 16:21:15;;;;;;;;;;;;;;;;;;6188550;23;19924;-96
2022/01/19 16:26:18;;;;;;;;;;;;;;;;;;6155364;23;19919;-96
2022/01/19 16:28:44;;;;;;;;;;;;;;;;;;6199530;23;19924;-96
2022/01/19 16:31:11;;;;;;;;;;;;;;;;;;6205188;23;19912;-95
2022/01/19 16:33:37;;;;;;;;;;;;;;;;;;6165524;23;20285;-95
2022/01/19 16:36:04;;;;;;;;;;;;;;;;;;6191744;23;19994;-93
2022/01/19 16:38:30;;;;;;;;;;;;;;;;;;6193265;23;19920;-93
2022/01/19 16:40:56;;;;;;;;;;;;;;;;;;6191408;23;19982;-94
2022/01/19 16:43:22;;;;;;;;;;;;;;;;;;6192622;23;19979;-94
2022/01/19 16:45:49;;;;;;;;;;;;;;;;;;6188790;23;19983;-96
2022/01/19 16:48:18;;;;;;;;;;;;;;;;;;6192820;23;19948;-96
2022/01/19 16:50:46;;;;;;;;;;;;;;;;;;6190125;23;19920;-96
2022/01/19 16:53:12;;;;;;;;;;;;;;;;;;6194026;23;19924;-96
2022/01/19 16:55:38;;;;;;;;;;;;;;;;;;6194987;23;19978;-95
2022/01/19 16:58:05;;;;;;;;;;;;;;;;;;6193652;23;19928;-95
2022/01/19 17:00:31;;;;;;;;;;;;;;;;;;6195292;23;19928;-96
2022/01/19 17:03:00;;;;;;;;;;;;;;;;;;6196217;23;19947;-96
2022/01/19 17:05:26;;;;;;;;;;;;;;;;;;6213683;23;19904;-95
2022/01/19 17:10:29;;;;;;;;;;;;;;;;;;6176023;23;21185;-96
2022/01/19 17:12:59;;;;;;;;;;;;;;;;;;6199153;23;19920;-96
2022/01/19 17:15:39;;;;;;;;;;;;;;;;;;6171567;23;19985;-96
2022/01/19 17:18:10;;;;;;;;;;;;;;;;;;6199974;23;19956;-96
2022/01/19 17:20:37;;;;;;;;;;;;;;;;;;6171921;23;19924;-96
2022/01/19 17:23:10;;;;;;;;;;;;;;;;;;6203452;23;19936;-96
2022/01/19 17:25:37;;;;;;;;;;;;;;;;;;6199673;23;19924;-96
2022/01/19 17:28:03;;;;;;;;;;;;;;;;;;6198468;23;19924;-96
2022/01/19 17:30:30;;;;;;;;;;;;;;;;;;6199687;23;19995;-96
2022/01/19 17:32:56;;;;;;;;;;;;;;;;;;6201401;23;19921;-96
2022/01/19 17:46:12;;;;;;;;;;;;;;;;;;6182932;23;19912;-96
2022/01/19 17:48:50;;;;;;;;;;;;;;;;;;6164798;23;19930;-96
2022/01/19 17:54:05;;;;;;;;;;;;;;;;;;6176249;23;19924;-96
2022/01/19 17:56:32;;;;;;;;;;;;;;;;;;6194747;23;20335;-96
2022/01/19 17:58:59;;;;;;;;;;;;;;;;;;6196024;23;19963;-96
2022/01/19 18:01:25;;;;;;;;;;;;;;;;;;6194952;23;19928;-96
2022/01/19 18:03:52;;;;;;;;;;;;;;;;;;6198620;23;19959;-96
2022/01/19 18:06:20;;;;;;;;;;;;;;;;;;6197879;23;19920;-96
2022/01/19 18:08:46;;;;;;;;;;;;;;;;;;6197239;23;19927;-96
2022/01/19 18:11:13;;;;;;;;;;;;;;;;;;6199635;23;19995;-96
2022/01/19 18:13:39;;;;;;;;;;;;;;;;;;6199849;23;19950;-96
2022/01/19 18:16:06;;;;;;;;;;;;;;;;;;6198702;23;19920;-96
2022/01/19 18:18:32;;;;;;;;;;;;;;;;;;6197209;23;19977;-96
2022/01/19 18:20:59;;;;;;;;;;;;;;;;;;6202610;23;19938;-96
2022/01/19 18:26:07;;;;;;;;;;;;;;;;;;6203119;23;19920;-96
2022/01/19 18:28:33;;;;;;;;;;;;;;;;;;6199618;23;19924;-96
2022/01/19 18:31:00;;;;;;;;;;;;;;;;;;6197238;23;19920;-96
2022/01/19 18:33:26;;;;;;;;;;;;;;;;;;6196472;23;19951;-96
2022/01/19 18:35:54;;;;;;;;;;;;;;;;;;6195647;23;19995;-96
2022/01/19 18:38:23;;;;;;;;;;;;;;;;;;6197461;23;19920;-96
2022/01/19 18:40:49;;;;;;;;;;;;;;;;;;6198110;23;19924;-96
2022/01/19 18:43:16;;;;;;;;;;;;;;;;;;6196382;23;19931;-96
2022/01/19 18:45:42;;;;;;;;;;;;;;;;;;6199296;23;20365;-96
2022/01/19 18:48:11;;;;;;;;;;;;;;;;;;6198268;23;19927;-96
2022/01/19 18:50:37;;;;;;;;;;;;;;;;;;6195962;23;19924;-96
2022/01/19 18:53:04;;;;;;;;;;;;;;;;;;6197670;23;19924;-96
2022/01/19 18:55:30;;;;;;;;;;;;;;;;;;6199184;23;20329;-96
2022/01/19 18:57:56;;;;;;;;;;;;;;;;;;6198692;23;19931;-96
2022/01/19 19:00:23;;;;;;;;;;;;;;;;;;6197919;23;19920;-96
2022/01/19 19:02:49;;;;;;;;;;;;;;;;;;6197224;23;19926;-96
2022/01/19 19:05:15;;;;;;;;;;;;;;;;;;6202935;23;19964;-96
2022/01/19 19:07:42;;;;;;;;;;;;;;;;;;6174635;23;19992;-96
2022/01/19 19:10:27;;;;;;;;;;;;;;;;;;6202041;23;19939;-96
2022/01/19 19:12:54;;;;;;;;;;;;;;;;;;6200101;23;19928;-96
2022/01/19 19:15:22;;;;;;;;;;;;;;;;;;6177378;23;19916;-96
2022/01/19 19:31:00;;;;;;;;;;;;;;;;;;6206786;22;19927;-96
2022/01/19 19:33:46;;;;;;;;;;;;;;;;;;6232095;23;19927;-96
2022/01/19 19:36:12;;;;;;;;;;;;;;;;;;6237810;23;19920;-96
2022/01/19 19:41:28;;;;;;;;;;;;;;;;;;6237155;23;19920;-96
2022/01/19 19:43:56;;;;;;;;;;;;;;;;;;6237855;23;19920;-96
2022/01/19 20:02:23;;;;;;;;;;;;;;;;;;6237724;23;19915;-96
2022/01/19 20:04:49;;;;;;;;;;;;;;;;;;6238317;23;19920;-96
2022/01/19 20:12:34;;;;;;;;;;;;;;;;;;6212981;23;19911;-96
2022/01/19 20:15:01;;;;;;;;;;;;;;;;;;6205224;23;19920;-96
2022/01/19 20:20:09;;;;;;;;;;;;;;;;;;6210079;23;19927;-96
2022/01/19 22:31:05;;;;;;;;;;;;;;;;;;6244244;22;20187;-96
2022/01/19 22:33:39;;;;;;;;;;;;;;;;;;6270224;23;19928;-96
2022/01/19 22:36:09;;;;;;;;;;;;;;;;;;6268310;23;19903;-96
2022/01/19 22:38:35;;;;;;;;;;;;;;;;;;6233482;22;19935;-96
2022/01/19 22:43:53;;;;;;;;;;;;;;;;;;6238411;23;19930;-96
2022/01/19 23:08:04;;;;;;;;;;;;;;;;;;6243906;23;19915;-96
2022/01/19 23:10:31;;;;;;;;;;;;;;;;;;6274883;23;19919;-96
2022/01/19 23:12:59;;;;;;;;;;;;;;;;;;6268718;23;19920;-96
2022/01/19 23:15:26;;;;;;;;;;;;;;;;;;6266111;23;19931;-96
2022/01/19 23:17:52;;;;;;;;;;;;;;;;;;6264247;23;19930;-96
2022/01/19 23:20:19;;;;;;;;;;;;;;;;;;6264803;23;19971;-96
2022/01/19 23:22:45;;;;;;;;;;;;;;;;;;6236994;23;19924;-96
2022/01/19 23:25:13;;;;;;;;;;;;;;;;;;6263161;23;19924;-96
2022/01/19 23:27:41;;;;;;;;;;;;;;;;;;6264804;23;19947;-96
2022/01/19 23:30:11;;;;;;;;;;;;;;;;;;6268175;23;19923;-96
2022/01/19 23:32:45;;;;;;;;;;;;;;;;;;6269677;23;19920;-96
2022/01/19 23:35:12;;;;;;;;;;;;;;;;;;6267232;23;19914;-96
2022/01/19 23:37:55;;;;;;;;;;;;;;;;;;6265064;23;19942;-96
2022/01/19 23:47:50;;;;;;;;;;;;;;;;;;6265052;23;19923;-96
2022/01/19 23:48:52;;;;;;;;;;;;;;;;;;6186287;23;19943;-95
2022/01/19 23:51:18;;;;;;;;;;;;;;;;;;6259349;23;20394;-96
2022/01/19 23:53:44;;;;;;;;;;;;;;;;;;6257990;23;19923;-96
2022/01/19 23:56:14;;;;;;;;;;;;;;;;;;6257235;23;19986;-95
2022/01/19 23:58:42;;;;;;;;;;;;;;;;;;6257384;23;19963;-95
